sensor_id;sensor_type;location;lat;lon;timestamp;P1;durP1;ratioP1;P2;durP2;ratioP2
53714;SDS011;39608;55.630;37.864;2023-07-29T00:04:42;3.90;;;1.95;;
53714;SDS011;39608;55.630;37.864;2023-07-29T00:09:44;1.75;;;1.55;;
53714;SDS011;39608;55.630;37.864;2023-07-29T00:14:47;3.38;;;2.08;;
53714;SDS011;39608;55.630;37.864;2023-07-29T00:19:49;2.22;;;1.92;;
53714;SDS011;39608;55.630;37.864;2023-07-29T00:24:51;6.82;;;2.03;;
53714;SDS011;39608;55.630;37.864;2023-07-29T00:29:56;1.75;;;1.65;;
53714;SDS011;39608;55.630;37.864;2023-07-29T00:34:58;2.85;;;1.83;;
53714;SDS011;39608;55.630;37.864;2023-07-29T00:40:01;4.72;;;2.05;;
53714;SDS011;39608;55.630;37.864;2023-07-29T00:45:06;3.85;;;2.45;;
53714;SDS011;39608;55.630;37.864;2023-07-29T00:50:09;2.63;;;2.10;;
53714;SDS011;39608;55.630;37.864;2023-07-29T00:55:14;3.47;;;2.47;;
53714;SDS011;39608;55.630;37.864;2023-07-29T01:00:17;2.47;;;2.10;;
53714;SDS011;39608;55.630;37.864;2023-07-29T01:05:19;4.20;;;1.83;;
53714;SDS011;39608;55.630;37.864;2023-07-29T01:10:26;2.97;;;2.00;;
53714;SDS011;39608;55.630;37.864;2023-07-29T01:15:41;2.30;;;1.70;;
53714;SDS011;39608;55.630;37.864;2023-07-29T01:20:48;2.75;;;1.95;;
53714;SDS011;39608;55.630;37.864;2023-07-29T01:25:56;2.87;;;1.60;;
53714;SDS011;39608;55.630;37.864;2023-07-29T01:30:59;3.40;;;1.83;;
53714;SDS011;39608;55.630;37.864;2023-07-29T01:36:07;1.92;;;1.63;;
53714;SDS011;39608;55.630;37.864;2023-07-29T01:41:14;4.18;;;2.30;;
53714;SDS011;39608;55.630;37.864;2023-07-29T01:46:18;2.47;;;1.95;;
53714;SDS011;39608;55.630;37.864;2023-07-29T01:51:20;2.35;;;2.15;;
53714;SDS011;39608;55.630;37.864;2023-07-29T01:56:24;2.88;;;2.35;;
53714;SDS011;39608;55.630;37.864;2023-07-29T02:01:26;2.28;;;1.70;;
53714;SDS011;39608;55.630;37.864;2023-07-29T02:06:28;4.07;;;2.42;;
53714;SDS011;39608;55.630;37.864;2023-07-29T02:11:31;3.92;;;2.30;;
53714;SDS011;39608;55.630;37.864;2023-07-29T02:16:33;5.45;;;3.88;;
53714;SDS011;39608;55.630;37.864;2023-07-29T02:21:56;6.03;;;2.60;;
53714;SDS011;39608;55.630;37.864;2023-07-29T02:27:00;3.38;;;2.10;;
53714;SDS011;39608;55.630;37.864;2023-07-29T02:32:02;2.83;;;2.10;;
53714;SDS011;39608;55.630;37.864;2023-07-29T02:37:04;2.65;;;1.85;;
53714;SDS011;39608;55.630;37.864;2023-07-29T02:42:08;2.63;;;2.17;;
53714;SDS011;39608;55.630;37.864;2023-07-29T02:47:10;5.60;;;2.50;;
53714;SDS011;39608;55.630;37.864;2023-07-29T02:52:12;3.10;;;2.20;;
53714;SDS011;39608;55.630;37.864;2023-07-29T02:57:15;3.80;;;1.90;;
53714;SDS011;39608;55.630;37.864;2023-07-29T03:02:18;7.07;;;2.05;;
53714;SDS011;39608;55.630;37.864;2023-07-29T03:07:20;2.35;;;2.08;;
53714;SDS011;39608;55.630;37.864;2023-07-29T03:12:23;2.47;;;2.08;;
53714;SDS011;39608;55.630;37.864;2023-07-29T03:17:26;2.50;;;2.30;;
53714;SDS011;39608;55.630;37.864;2023-07-29T03:22:29;5.75;;;2.20;;
53714;SDS011;39608;55.630;37.864;2023-07-29T03:27:32;2.25;;;2.00;;
53714;SDS011;39608;55.630;37.864;2023-07-29T03:32:39;4.65;;;1.98;;
53714;SDS011;39608;55.630;37.864;2023-07-29T03:37:45;3.10;;;1.90;;
53714;SDS011;39608;55.630;37.864;2023-07-29T03:42:49;2.83;;;1.70;;
53714;SDS011;39608;55.630;37.864;2023-07-29T03:47:51;7.32;;;2.05;;
53714;SDS011;39608;55.630;37.864;2023-07-29T03:52:53;2.30;;;2.10;;
53714;SDS011;39608;55.630;37.864;2023-07-29T03:57:57;5.53;;;1.90;;
53714;SDS011;39608;55.630;37.864;2023-07-29T04:02:59;3.03;;;1.77;;
53714;SDS011;39608;55.630;37.864;2023-07-29T04:08:01;2.20;;;1.73;;
53714;SDS011;39608;55.630;37.864;2023-07-29T04:13:04;3.22;;;1.70;;
53714;SDS011;39608;55.630;37.864;2023-07-29T04:18:06;1.90;;;1.80;;
53714;SDS011;39608;55.630;37.864;2023-07-29T04:23:08;4.75;;;1.70;;
53714;SDS011;39608;55.630;37.864;2023-07-29T04:28:12;4.15;;;2.05;;
53714;SDS011;39608;55.630;37.864;2023-07-29T04:33:14;4.35;;;2.17;;
53714;SDS011;39608;55.630;37.864;2023-07-29T04:38:16;3.22;;;1.90;;
53714;SDS011;39608;55.630;37.864;2023-07-29T04:43:19;2.30;;;2.10;;
53714;SDS011;39608;55.630;37.864;2023-07-29T04:48:23;3.90;;;2.10;;
53714;SDS011;39608;55.630;37.864;2023-07-29T04:53:25;3.22;;;2.30;;
53714;SDS011;39608;55.630;37.864;2023-07-29T04:58:28;2.70;;;1.92;;
53714;SDS011;39608;55.630;37.864;2023-07-29T05:03:30;4.30;;;2.30;;
53714;SDS011;39608;55.630;37.864;2023-07-29T05:08:33;2.25;;;1.83;;
53714;SDS011;39608;55.630;37.864;2023-07-29T05:13:36;3.60;;;2.10;;
53714;SDS011;39608;55.630;37.864;2023-07-29T05:18:39;2.05;;;1.95;;
53714;SDS011;39608;55.630;37.864;2023-07-29T05:23:41;5.00;;;2.30;;
53714;SDS011;39608;55.630;37.864;2023-07-29T05:28:45;3.10;;;2.40;;
53714;SDS011;39608;55.630;37.864;2023-07-29T05:33:47;2.45;;;2.25;;
53714;SDS011;39608;55.630;37.864;2023-07-29T05:38:49;2.90;;;2.65;;
53714;SDS011;39608;55.630;37.864;2023-07-29T05:43:54;6.95;;;2.50;;
53714;SDS011;39608;55.630;37.864;2023-07-29T05:48:56;5.05;;;2.60;;
53714;SDS011;39608;55.630;37.864;2023-07-29T05:53:58;3.95;;;2.50;;
53714;SDS011;39608;55.630;37.864;2023-07-29T05:59:01;5.10;;;2.60;;
53714;SDS011;39608;55.630;37.864;2023-07-29T06:04:04;6.78;;;2.35;;
53714;SDS011;39608;55.630;37.864;2023-07-29T06:09:06;3.95;;;2.13;;
53714;SDS011;39608;55.630;37.864;2023-07-29T06:14:09;4.80;;;2.55;;
53714;SDS011;39608;55.630;37.864;2023-07-29T06:19:11;3.72;;;2.22;;
53714;SDS011;39608;55.630;37.864;2023-07-29T06:24:13;2.63;;;2.25;;
53714;SDS011;39608;55.630;37.864;2023-07-29T06:29:17;2.72;;;2.50;;
53714;SDS011;39608;55.630;37.864;2023-07-29T06:34:19;5.85;;;2.28;;
53714;SDS011;39608;55.630;37.864;2023-07-29T06:39:21;2.53;;;2.15;;
53714;SDS011;39608;55.630;37.864;2023-07-29T06:44:24;5.78;;;3.38;;
53714;SDS011;39608;55.630;37.864;2023-07-29T06:49:26;3.83;;;2.28;;
53714;SDS011;39608;55.630;37.864;2023-07-29T06:54:28;4.68;;;2.90;;
53714;SDS011;39608;55.630;37.864;2023-07-29T06:59:32;6.20;;;2.38;;
53714;SDS011;39608;55.630;37.864;2023-07-29T07:04:34;7.20;;;3.08;;
53714;SDS011;39608;55.630;37.864;2023-07-29T07:09:36;3.63;;;2.35;;
53714;SDS011;39608;55.630;37.864;2023-07-29T07:14:39;6.28;;;2.38;;
53714;SDS011;39608;55.630;37.864;2023-07-29T07:19:41;13.38;;;2.75;;
53714;SDS011;39608;55.630;37.864;2023-07-29T07:24:43;15.90;;;3.22;;
53714;SDS011;39608;55.630;37.864;2023-07-29T07:29:47;6.30;;;3.40;;
53714;SDS011;39608;55.630;37.864;2023-07-29T07:34:49;4.22;;;2.45;;
53714;SDS011;39608;55.630;37.864;2023-07-29T07:39:51;4.82;;;3.08;;
53714;SDS011;39608;55.630;37.864;2023-07-29T07:44:54;5.03;;;2.92;;
53714;SDS011;39608;55.630;37.864;2023-07-29T07:49:56;6.38;;;2.65;;
53714;SDS011;39608;55.630;37.864;2023-07-29T07:54:58;5.35;;;2.70;;
53714;SDS011;39608;55.630;37.864;2023-07-29T08:00:02;5.03;;;2.58;;
53714;SDS011;39608;55.630;37.864;2023-07-29T08:05:05;9.55;;;2.90;;
53714;SDS011;39608;55.630;37.864;2023-07-29T08:10:08;4.40;;;2.53;;
53714;SDS011;39608;55.630;37.864;2023-07-29T08:15:12;9.48;;;2.63;;
53714;SDS011;39608;55.630;37.864;2023-07-29T08:20:14;4.78;;;2.55;;
53714;SDS011;39608;55.630;37.864;2023-07-29T08:25:16;2.80;;;2.50;;
53714;SDS011;39608;55.630;37.864;2023-07-29T08:30:20;6.05;;;2.63;;
53714;SDS011;39608;55.630;37.864;2023-07-29T08:35:22;4.68;;;2.58;;
53714;SDS011;39608;55.630;37.864;2023-07-29T08:40:27;4.40;;;2.95;;
53714;SDS011;39608;55.630;37.864;2023-07-29T08:45:32;9.13;;;2.78;;
53714;SDS011;39608;55.630;37.864;2023-07-29T08:50:37;5.63;;;3.00;;
53714;SDS011;39608;55.630;37.864;2023-07-29T08:55:39;6.15;;;3.78;;
53714;SDS011;39608;55.630;37.864;2023-07-29T09:00:43;3.85;;;2.92;;
53714;SDS011;39608;55.630;37.864;2023-07-29T09:05:45;8.40;;;3.50;;
53714;SDS011;39608;55.630;37.864;2023-07-29T09:10:48;8.20;;;2.75;;
53714;SDS011;39608;55.630;37.864;2023-07-29T09:15:54;6.45;;;3.03;;
53714;SDS011;39608;55.630;37.864;2023-07-29T09:20:58;3.20;;;2.70;;
53714;SDS011;39608;55.630;37.864;2023-07-29T09:26:01;4.13;;;3.30;;
53714;SDS011;39608;55.630;37.864;2023-07-29T09:31:05;3.70;;;3.03;;
53714;SDS011;39608;55.630;37.864;2023-07-29T09:36:08;3.88;;;3.45;;
53714;SDS011;39608;55.630;37.864;2023-07-29T09:41:11;3.38;;;3.05;;
53714;SDS011;39608;55.630;37.864;2023-07-29T09:46:19;3.40;;;3.10;;
53714;SDS011;39608;55.630;37.864;2023-07-29T09:51:24;5.88;;;3.50;;
53714;SDS011;39608;55.630;37.864;2023-07-29T09:56:27;4.65;;;3.40;;
53714;SDS011;39608;55.630;37.864;2023-07-29T10:01:30;8.02;;;4.60;;
53714;SDS011;39608;55.630;37.864;2023-07-29T10:06:35;5.67;;;3.20;;
53714;SDS011;39608;55.630;37.864;2023-07-29T10:11:38;4.97;;;3.80;;
53714;SDS011;39608;55.630;37.864;2023-07-29T10:16:43;3.85;;;3.55;;
53714;SDS011;39608;55.630;37.864;2023-07-29T10:21:46;5.10;;;3.28;;
53714;SDS011;39608;55.630;37.864;2023-07-29T10:26:50;4.35;;;3.40;;
53714;SDS011;39608;55.630;37.864;2023-07-29T10:31:53;6.25;;;3.95;;
53714;SDS011;39608;55.630;37.864;2023-07-29T10:36:58;3.53;;;2.50;;
53714;SDS011;39608;55.630;37.864;2023-07-29T10:42:01;2.95;;;2.20;;
53714;SDS011;39608;55.630;37.864;2023-07-29T10:47:11;4.25;;;3.13;;
53714;SDS011;39608;55.630;37.864;2023-07-29T10:52:16;6.53;;;2.72;;
53714;SDS011;39608;55.630;37.864;2023-07-29T10:57:32;3.25;;;2.80;;
53714;SDS011;39608;55.630;37.864;2023-07-29T11:02:36;3.00;;;2.43;;
53714;SDS011;39608;55.630;37.864;2023-07-29T11:07:43;7.15;;;2.40;;
53714;SDS011;39608;55.630;37.864;2023-07-29T11:12:46;2.37;;;2.17;;
53714;SDS011;39608;55.630;37.864;2023-07-29T11:17:52;3.47;;;2.45;;
53714;SDS011;39608;55.630;37.864;2023-07-29T11:22:55;4.18;;;2.92;;
53714;SDS011;39608;55.630;37.864;2023-07-29T11:27:59;6.10;;;3.17;;
53714;SDS011;39608;55.630;37.864;2023-07-29T11:33:03;4.10;;;3.45;;
53714;SDS011;39608;55.630;37.864;2023-07-29T11:38:05;4.88;;;3.92;;
53714;SDS011;39608;55.630;37.864;2023-07-29T11:43:08;10.05;;;6.53;;
53714;SDS011;39608;55.630;37.864;2023-07-29T11:48:11;11.98;;;7.20;;
53714;SDS011;39608;55.630;37.864;2023-07-29T11:53:13;6.85;;;5.30;;
53714;SDS011;39608;55.630;37.864;2023-07-29T11:58:15;10.85;;;5.63;;
53714;SDS011;39608;55.630;37.864;2023-07-29T12:03:19;7.15;;;5.50;;
53714;SDS011;39608;55.630;37.864;2023-07-29T12:08:21;11.60;;;7.78;;
53714;SDS011;39608;55.630;37.864;2023-07-29T12:13:24;13.68;;;7.10;;
53714;SDS011;39608;55.630;37.864;2023-07-29T12:18:30;12.88;;;6.40;;
53714;SDS011;39608;55.630;37.864;2023-07-29T12:23:33;8.50;;;5.78;;
53714;SDS011;39608;55.630;37.864;2023-07-29T12:28:35;12.32;;;5.78;;
53714;SDS011;39608;55.630;37.864;2023-07-29T12:33:38;10.55;;;5.75;;
53714;SDS011;39608;55.630;37.864;2023-07-29T12:38:42;13.73;;;5.22;;
53714;SDS011;39608;55.630;37.864;2023-07-29T12:43:45;9.05;;;3.63;;
53714;SDS011;39608;55.630;37.864;2023-07-29T12:48:48;6.57;;;4.32;;
53714;SDS011;39608;55.630;37.864;2023-07-29T12:53:50;7.95;;;3.92;;
53714;SDS011;39608;55.630;37.864;2023-07-29T12:58:52;6.68;;;4.15;;
53714;SDS011;39608;55.630;37.864;2023-07-29T13:03:55;6.55;;;4.05;;
53714;SDS011;39608;55.630;37.864;2023-07-29T13:08:57;6.55;;;3.88;;
53714;SDS011;39608;55.630;37.864;2023-07-29T13:14:00;10.75;;;4.90;;
53714;SDS011;39608;55.630;37.864;2023-07-29T13:19:03;4.95;;;3.63;;
53714;SDS011;39608;55.630;37.864;2023-07-29T13:24:05;5.97;;;3.40;;
53714;SDS011;39608;55.630;37.864;2023-07-29T13:29:07;10.07;;;4.03;;
53714;SDS011;39608;55.630;37.864;2023-07-29T13:34:10;9.63;;;4.57;;
53714;SDS011;39608;55.630;37.864;2023-07-29T13:39:14;10.45;;;5.03;;
53714;SDS011;39608;55.630;37.864;2023-07-29T13:44:16;12.45;;;4.85;;
53714;SDS011;39608;55.630;37.864;2023-07-29T13:49:20;7.07;;;5.25;;
53714;SDS011;39608;55.630;37.864;2023-07-29T13:54:22;7.20;;;4.30;;
53714;SDS011;39608;55.630;37.864;2023-07-29T13:59:24;11.05;;;3.88;;
53714;SDS011;39608;55.630;37.864;2023-07-29T14:04:27;11.75;;;5.60;;
53714;SDS011;39608;55.630;37.864;2023-07-29T14:09:30;7.88;;;4.78;;
53714;SDS011;39608;55.630;37.864;2023-07-29T14:14:32;6.78;;;4.63;;
53714;SDS011;39608;55.630;37.864;2023-07-29T14:19:36;6.85;;;3.92;;
53714;SDS011;39608;55.630;37.864;2023-07-29T14:24:38;9.02;;;4.13;;
53714;SDS011;39608;55.630;37.864;2023-07-29T14:29:40;5.90;;;4.65;;
53714;SDS011;39608;55.630;37.864;2023-07-29T14:34:43;7.55;;;5.18;;
53714;SDS011;39608;55.630;37.864;2023-07-29T14:39:45;7.22;;;4.28;;
53714;SDS011;39608;55.630;37.864;2023-07-29T14:44:47;8.20;;;4.85;;
53714;SDS011;39608;55.630;37.864;2023-07-29T14:49:51;14.73;;;6.07;;
53714;SDS011;39608;55.630;37.864;2023-07-29T14:54:53;8.00;;;3.83;;
53714;SDS011;39608;55.630;37.864;2023-07-29T14:59:55;9.82;;;4.57;;
53714;SDS011;39608;55.630;37.864;2023-07-29T15:04:58;10.68;;;4.05;;
53714;SDS011;39608;55.630;37.864;2023-07-29T15:10:00;10.45;;;4.85;;
53714;SDS011;39608;55.630;37.864;2023-07-29T15:15:03;5.90;;;4.38;;
53714;SDS011;39608;55.630;37.864;2023-07-29T15:20:07;8.27;;;4.60;;
53714;SDS011;39608;55.630;37.864;2023-07-29T15:25:10;5.10;;;4.05;;
53714;SDS011;39608;55.630;37.864;2023-07-29T15:30:12;9.23;;;4.55;;
53714;SDS011;39608;55.630;37.864;2023-07-29T15:35:15;7.25;;;4.43;;
53714;SDS011;39608;55.630;37.864;2023-07-29T15:40:17;8.85;;;4.70;;
53714;SDS011;39608;55.630;37.864;2023-07-29T15:45:20;9.82;;;4.50;;
53714;SDS011;39608;55.630;37.864;2023-07-29T15:50:24;7.90;;;3.95;;
53714;SDS011;39608;55.630;37.864;2023-07-29T15:55:26;7.15;;;4.60;;
53714;SDS011;39608;55.630;37.864;2023-07-29T16:00:28;9.73;;;4.95;;
53714;SDS011;39608;55.630;37.864;2023-07-29T16:05:31;9.25;;;4.68;;
53714;SDS011;39608;55.630;37.864;2023-07-29T16:10:33;6.68;;;4.15;;
53714;SDS011;39608;55.630;37.864;2023-07-29T16:15:36;9.02;;;4.40;;
53714;SDS011;39608;55.630;37.864;2023-07-29T16:20:39;8.07;;;4.32;;
53714;SDS011;39608;55.630;37.864;2023-07-29T16:25:41;8.65;;;4.28;;
53714;SDS011;39608;55.630;37.864;2023-07-29T16:30:44;9.70;;;4.25;;
53714;SDS011;39608;55.630;37.864;2023-07-29T16:35:47;8.00;;;4.20;;
53714;SDS011;39608;55.630;37.864;2023-07-29T16:40:49;13.45;;;4.30;;
53714;SDS011;39608;55.630;37.864;2023-07-29T16:45:51;8.80;;;3.65;;
53714;SDS011;39608;55.630;37.864;2023-07-29T16:50:55;7.07;;;3.53;;
53714;SDS011;39608;55.630;37.864;2023-07-29T16:55:57;5.05;;;3.92;;
53714;SDS011;39608;55.630;37.864;2023-07-29T17:00:58;5.70;;;4.20;;
53714;SDS011;39608;55.630;37.864;2023-07-29T17:06:02;12.75;;;3.95;;
53714;SDS011;39608;55.630;37.864;2023-07-29T17:11:04;7.13;;;3.70;;
53714;SDS011;39608;55.630;37.864;2023-07-29T17:16:06;6.70;;;3.45;;
53714;SDS011;39608;55.630;37.864;2023-07-29T17:21:10;5.15;;;3.78;;
53714;SDS011;39608;55.630;37.864;2023-07-29T17:26:12;5.45;;;3.78;;
53714;SDS011;39608;55.630;37.864;2023-07-29T17:31:14;9.88;;;3.50;;
53714;SDS011;39608;55.630;37.864;2023-07-29T17:36:17;11.27;;;3.95;;
53714;SDS011;39608;55.630;37.864;2023-07-29T17:41:19;13.48;;;4.20;;
53714;SDS011;39608;55.630;37.864;2023-07-29T17:46:22;20.35;;;5.07;;
53714;SDS011;39608;55.630;37.864;2023-07-29T17:51:25;5.90;;;3.70;;
53714;SDS011;39608;55.630;37.864;2023-07-29T17:56:27;9.98;;;3.80;;
53714;SDS011;39608;55.630;37.864;2023-07-29T18:01:29;9.55;;;3.47;;
53714;SDS011;39608;55.630;37.864;2023-07-29T18:06:33;8.90;;;3.58;;
53714;SDS011;39608;55.630;37.864;2023-07-29T18:11:35;7.60;;;2.92;;
53714;SDS011;39608;55.630;37.864;2023-07-29T18:16:40;9.60;;;3.50;;
53714;SDS011;39608;55.630;37.864;2023-07-29T18:21:44;9.77;;;3.28;;
53714;SDS011;39608;55.630;37.864;2023-07-29T18:26:46;7.10;;;3.58;;
53714;SDS011;39608;55.630;37.864;2023-07-29T18:31:48;6.13;;;3.33;;
53714;SDS011;39608;55.630;37.864;2023-07-29T18:36:53;7.95;;;3.22;;
53714;SDS011;39608;55.630;37.864;2023-07-29T18:41:55;4.63;;;3.22;;
53714;SDS011;39608;55.630;37.864;2023-07-29T20:14:12;5.45;;;3.95;;
53714;SDS011;39608;55.630;37.864;2023-07-29T20:19:14;7.78;;;3.97;;
53714;SDS011;39608;55.630;37.864;2023-07-29T20:24:17;5.35;;;3.08;;
53714;SDS011;39608;55.630;37.864;2023-07-29T20:29:20;11.93;;;3.00;;
53714;SDS011;39608;55.630;37.864;2023-07-29T20:34:22;5.72;;;2.72;;
53714;SDS011;39608;55.630;37.864;2023-07-29T20:39:25;3.78;;;2.78;;
53714;SDS011;39608;55.630;37.864;2023-07-29T20:44:28;3.17;;;2.63;;
53714;SDS011;39608;55.630;37.864;2023-07-29T20:49:30;3.95;;;3.33;;
53714;SDS011;39608;55.630;37.864;2023-07-29T20:54:32;4.55;;;3.10;;
53714;SDS011;39608;55.630;37.864;2023-07-29T20:59:35;5.10;;;3.38;;
53714;SDS011;39608;55.630;37.864;2023-07-29T21:04:37;4.53;;;3.03;;
53714;SDS011;39608;55.630;37.864;2023-07-29T21:09:39;5.93;;;3.80;;
53714;SDS011;39608;55.630;37.864;2023-07-29T21:14:43;8.20;;;3.72;;
53714;SDS011;39608;55.630;37.864;2023-07-29T21:19:45;18.27;;;5.70;;
53714;SDS011;39608;55.630;37.864;2023-07-29T21:24:47;20.70;;;7.72;;
53714;SDS011;39608;55.630;37.864;2023-07-29T21:29:50;15.38;;;8.07;;
53714;SDS011;39608;55.630;37.864;2023-07-29T21:34:52;13.55;;;6.00;;
53714;SDS011;39608;55.630;37.864;2023-07-29T21:39:54;8.82;;;4.50;;
53714;SDS011;39608;55.630;37.864;2023-07-29T21:45:00;7.60;;;4.28;;
53714;SDS011;39608;55.630;37.864;2023-07-29T21:50:05;11.30;;;4.22;;
53714;SDS011;39608;55.630;37.864;2023-07-29T21:55:08;15.18;;;4.35;;
53714;SDS011;39608;55.630;37.864;2023-07-29T22:00:12;5.25;;;3.70;;
53714;SDS011;39608;55.630;37.864;2023-07-29T22:05:15;13.80;;;3.85;;
53714;SDS011;39608;55.630;37.864;2023-07-29T22:10:18;4.20;;;3.40;;
53714;SDS011;39608;55.630;37.864;2023-07-29T22:15:21;12.35;;;3.90;;
53714;SDS011;39608;55.630;37.864;2023-07-29T22:20:24;8.73;;;4.00;;
53714;SDS011;39608;55.630;37.864;2023-07-29T22:25:26;7.70;;;3.97;;
53714;SDS011;39608;55.630;37.864;2023-07-29T22:30:30;5.95;;;4.18;;
53714;SDS011;39608;55.630;37.864;2023-07-29T22:35:36;9.20;;;4.57;;
53714;SDS011;39608;55.630;37.864;2023-07-29T22:40:38;9.23;;;4.93;;
53714;SDS011;39608;55.630;37.864;2023-07-29T22:45:42;5.85;;;4.13;;
53714;SDS011;39608;55.630;37.864;2023-07-29T22:50:44;11.65;;;5.25;;
53714;SDS011;39608;55.630;37.864;2023-07-29T22:55:46;8.07;;;4.63;;
53714;SDS011;39608;55.630;37.864;2023-07-29T23:00:51;11.57;;;5.28;;
53714;SDS011;39608;55.630;37.864;2023-07-29T23:05:54;9.00;;;4.95;;
53714;SDS011;39608;55.630;37.864;2023-07-29T23:10:59;8.60;;;5.28;;
53714;SDS011;39608;55.630;37.864;2023-07-29T23:16:03;13.45;;;5.30;;
53714;SDS011;39608;55.630;37.864;2023-07-29T23:21:05;9.75;;;4.45;;
53714;SDS011;39608;55.630;37.864;2023-07-29T23:26:07;9.70;;;4.68;;
53714;SDS011;39608;55.630;37.864;2023-07-29T23:31:11;9.55;;;4.20;;
53714;SDS011;39608;55.630;37.864;2023-07-29T23:36:13;5.70;;;4.70;;
53714;SDS011;39608;55.630;37.864;2023-07-29T23:41:15;9.30;;;4.70;;
53714;SDS011;39608;55.630;37.864;2023-07-29T23:46:18;7.22;;;4.60;;
53714;SDS011;39608;55.630;37.864;2023-07-29T23:51:20;7.47;;;4.35;;
53714;SDS011;39608;55.630;37.864;2023-07-29T23:56:22;13.13;;;4.55;;
